sensor_id;sensor_type;location;lat;lon;timestamp;temperature;humidity
18412;DHT22;27097;51.738;19.472;2023-06-05T00:00:26;23.90;62.30
18412;DHT22;27097;51.738;19.472;2023-06-05T00:02:53;23.90;62.50
18412;DHT22;27097;51.738;19.472;2023-06-05T00:05:20;23.90;62.30
18412;DHT22;27097;51.738;19.472;2023-06-05T00:07:51;23.90;62.70
18412;DHT22;27097;51.738;19.472;2023-06-05T00:10:18;24.00;62.80
18412;DHT22;27097;51.738;19.472;2023-06-05T00:12:45;24.00;62.60
18412;DHT22;27097;51.738;19.472;2023-06-05T00:15:13;24.00;61.70
18412;DHT22;27097;51.738;19.472;2023-06-05T00:17:40;24.00;62.50
18412;DHT22;27097;51.738;19.472;2023-06-05T00:20:08;24.00;62.60
18412;DHT22;27097;51.738;19.472;2023-06-05T00:22:35;24.00;62.40
18412;DHT22;27097;51.738;19.472;2023-06-05T00:25:02;24.00;63.20
18412;DHT22;27097;51.738;19.472;2023-06-05T00:27:29;24.00;60.80
18412;DHT22;27097;51.738;19.472;2023-06-05T00:29:56;24.00;60.90
18412;DHT22;27097;51.738;19.472;2023-06-05T00:32:24;24.00;61.60
18412;DHT22;27097;51.738;19.472;2023-06-05T00:34:51;24.00;60.90
18412;DHT22;27097;51.738;19.472;2023-06-05T00:37:19;24.00;60.80
18412;DHT22;27097;51.738;19.472;2023-06-05T00:39:46;24.00;62.00
18412;DHT22;27097;51.738;19.472;2023-06-05T00:42:13;24.00;62.30
18412;DHT22;27097;51.738;19.472;2023-06-05T00:44:40;24.00;60.90
18412;DHT22;27097;51.738;19.472;2023-06-05T00:47:07;24.00;61.00
18412;DHT22;27097;51.738;19.472;2023-06-05T00:49:36;24.00;61.00
18412;DHT22;27097;51.738;19.472;2023-06-05T00:52:04;24.10;61.20
18412;DHT22;27097;51.738;19.472;2023-06-05T00:54:31;24.10;61.50
18412;DHT22;27097;51.738;19.472;2023-06-05T00:56:58;24.10;61.40
18412;DHT22;27097;51.738;19.472;2023-06-05T00:59:25;24.10;61.50
18412;DHT22;27097;51.738;19.472;2023-06-05T01:01:52;24.10;62.00
18412;DHT22;27097;51.738;19.472;2023-06-05T01:04:19;24.10;61.60
18412;DHT22;27097;51.738;19.472;2023-06-05T01:06:50;24.10;60.90
18412;DHT22;27097;51.738;19.472;2023-06-05T01:09:18;24.10;60.30
18412;DHT22;27097;51.738;19.472;2023-06-05T01:11:52;24.10;60.80
18412;DHT22;27097;51.738;19.472;2023-06-05T01:14:21;24.10;60.70
18412;DHT22;27097;51.738;19.472;2023-06-05T01:16:50;24.10;61.00
18412;DHT22;27097;51.738;19.472;2023-06-05T01:19:19;24.10;60.60
18412;DHT22;27097;51.738;19.472;2023-06-05T01:21:46;24.10;60.90
18412;DHT22;27097;51.738;19.472;2023-06-05T01:24:14;24.10;60.90
18412;DHT22;27097;51.738;19.472;2023-06-05T01:26:53;24.10;61.00
18412;DHT22;27097;51.738;19.472;2023-06-05T01:29:31;24.10;60.90
18412;DHT22;27097;51.738;19.472;2023-06-05T01:32:03;24.00;60.70
18412;DHT22;27097;51.738;19.472;2023-06-05T01:34:32;24.10;60.50
18412;DHT22;27097;51.738;19.472;2023-06-05T01:37:01;24.10;60.10
18412;DHT22;27097;51.738;19.472;2023-06-05T01:39:30;24.00;60.60
18412;DHT22;27097;51.738;19.472;2023-06-05T01:41:58;24.00;60.30
18412;DHT22;27097;51.738;19.472;2023-06-05T01:44:26;24.00;60.80
18412;DHT22;27097;51.738;19.472;2023-06-05T01:46:53;24.00;60.90
18412;DHT22;27097;51.738;19.472;2023-06-05T01:49:20;24.00;60.90
18412;DHT22;27097;51.738;19.472;2023-06-05T01:51:48;24.00;60.70
18412;DHT22;27097;51.738;19.472;2023-06-05T01:54:15;24.10;61.00
18412;DHT22;27097;51.738;19.472;2023-06-05T01:56:43;24.00;60.80
18412;DHT22;27097;51.738;19.472;2023-06-05T01:59:13;24.00;60.90
18412;DHT22;27097;51.738;19.472;2023-06-05T02:01:41;24.00;61.30
18412;DHT22;27097;51.738;19.472;2023-06-05T02:04:09;24.00;61.00
18412;DHT22;27097;51.738;19.472;2023-06-05T02:06:36;24.00;61.10
18412;DHT22;27097;51.738;19.472;2023-06-05T02:09:08;24.00;61.60
18412;DHT22;27097;51.738;19.472;2023-06-05T02:11:36;24.00;60.40
18412;DHT22;27097;51.738;19.472;2023-06-05T02:14:05;24.00;60.80
18412;DHT22;27097;51.738;19.472;2023-06-05T02:16:32;24.00;61.30
18412;DHT22;27097;51.738;19.472;2023-06-05T02:18:59;24.00;62.10
18412;DHT22;27097;51.738;19.472;2023-06-05T02:21:29;24.00;61.30
18412;DHT22;27097;51.738;19.472;2023-06-05T02:23:57;24.00;62.10
18412;DHT22;27097;51.738;19.472;2023-06-05T02:26:24;24.00;61.60
18412;DHT22;27097;51.738;19.472;2023-06-05T02:28:52;24.00;60.90
18412;DHT22;27097;51.738;19.472;2023-06-05T02:31:21;24.00;60.90
18412;DHT22;27097;51.738;19.472;2023-06-05T02:33:51;24.00;60.90
18412;DHT22;27097;51.738;19.472;2023-06-05T02:36:18;24.00;60.60
18412;DHT22;27097;51.738;19.472;2023-06-05T02:38:45;24.00;60.70
18412;DHT22;27097;51.738;19.472;2023-06-05T02:41:15;24.00;61.00
18412;DHT22;27097;51.738;19.472;2023-06-05T02:43:42;24.00;61.00
18412;DHT22;27097;51.738;19.472;2023-06-05T02:46:09;24.00;61.20
18412;DHT22;27097;51.738;19.472;2023-06-05T02:48:37;24.00;60.50
18412;DHT22;27097;51.738;19.472;2023-06-05T02:51:04;24.00;60.80
18412;DHT22;27097;51.738;19.472;2023-06-05T02:53:32;24.00;61.90
18412;DHT22;27097;51.738;19.472;2023-06-05T02:55:59;24.00;61.20
18412;DHT22;27097;51.738;19.472;2023-06-05T02:58:27;24.00;60.80
18412;DHT22;27097;51.738;19.472;2023-06-05T03:00:54;24.00;60.90
18412;DHT22;27097;51.738;19.472;2023-06-05T03:03:21;24.00;60.80
18412;DHT22;27097;51.738;19.472;2023-06-05T03:05:52;24.00;61.00
18412;DHT22;27097;51.738;19.472;2023-06-05T03:08:19;24.00;60.90
18412;DHT22;27097;51.738;19.472;2023-06-05T03:10:46;24.00;61.00
18412;DHT22;27097;51.738;19.472;2023-06-05T03:13:13;24.00;60.90
18412;DHT22;27097;51.738;19.472;2023-06-05T03:15:40;24.00;61.00
18412;DHT22;27097;51.738;19.472;2023-06-05T03:18:07;24.00;60.70
18412;DHT22;27097;51.738;19.472;2023-06-05T03:20:34;24.00;60.80
18412;DHT22;27097;51.738;19.472;2023-06-05T03:23:03;24.00;60.50
18412;DHT22;27097;51.738;19.472;2023-06-05T03:25:29;24.00;60.40
18412;DHT22;27097;51.738;19.472;2023-06-05T03:27:56;24.00;60.40
18412;DHT22;27097;51.738;19.472;2023-06-05T03:30:23;24.00;60.40
18412;DHT22;27097;51.738;19.472;2023-06-05T03:32:50;24.00;60.40
18412;DHT22;27097;51.738;19.472;2023-06-05T03:35:17;24.00;60.10
18412;DHT22;27097;51.738;19.472;2023-06-05T03:37:44;24.00;61.30
18412;DHT22;27097;51.738;19.472;2023-06-05T03:40:12;24.00;60.10
18412;DHT22;27097;51.738;19.472;2023-06-05T03:42:39;24.00;60.00
18412;DHT22;27097;51.738;19.472;2023-06-05T03:45:07;24.00;60.10
18412;DHT22;27097;51.738;19.472;2023-06-05T03:47:34;24.00;60.00
18412;DHT22;27097;51.738;19.472;2023-06-05T03:50:01;24.00;60.00
18412;DHT22;27097;51.738;19.472;2023-06-05T03:52:29;24.00;59.90
18412;DHT22;27097;51.738;19.472;2023-06-05T03:54:55;24.00;60.00
18412;DHT22;27097;51.738;19.472;2023-06-05T03:57:24;24.00;60.30
18412;DHT22;27097;51.738;19.472;2023-06-05T03:59:51;24.00;60.00
18412;DHT22;27097;51.738;19.472;2023-06-05T04:02:18;24.00;60.50
18412;DHT22;27097;51.738;19.472;2023-06-05T04:04:45;24.00;60.10
18412;DHT22;27097;51.738;19.472;2023-06-05T04:07:11;24.00;60.70
18412;DHT22;27097;51.738;19.472;2023-06-05T04:09:38;24.00;61.10
18412;DHT22;27097;51.738;19.472;2023-06-05T04:12:06;24.00;60.70
18412;DHT22;27097;51.738;19.472;2023-06-05T04:14:34;24.10;60.90
18412;DHT22;27097;51.738;19.472;2023-06-05T04:17:01;24.00;60.30
18412;DHT22;27097;51.738;19.472;2023-06-05T04:19:28;24.10;60.50
18412;DHT22;27097;51.738;19.472;2023-06-05T04:21:55;24.10;60.40
18412;DHT22;27097;51.738;19.472;2023-06-05T04:24:22;24.10;60.40
18412;DHT22;27097;51.738;19.472;2023-06-05T04:26:50;24.10;60.10
18412;DHT22;27097;51.738;19.472;2023-06-05T04:29:17;24.10;59.70
18412;DHT22;27097;51.738;19.472;2023-06-05T04:31:46;24.10;59.80
18412;DHT22;27097;51.738;19.472;2023-06-05T04:34:14;24.10;59.30
18412;DHT22;27097;51.738;19.472;2023-06-05T04:36:44;24.10;59.60
18412;DHT22;27097;51.738;19.472;2023-06-05T04:39:12;24.10;59.70
18412;DHT22;27097;51.738;19.472;2023-06-05T04:41:40;24.10;60.50
18412;DHT22;27097;51.738;19.472;2023-06-05T04:44:11;24.10;60.10
18412;DHT22;27097;51.738;19.472;2023-06-05T04:46:39;24.20;59.30
18412;DHT22;27097;51.738;19.472;2023-06-05T04:49:10;24.20;58.70
18412;DHT22;27097;51.738;19.472;2023-06-05T04:51:38;24.20;59.60
18412;DHT22;27097;51.738;19.472;2023-06-05T04:54:05;24.20;59.60
18412;DHT22;27097;51.738;19.472;2023-06-05T04:56:32;24.20;59.40
18412;DHT22;27097;51.738;19.472;2023-06-05T04:59:00;24.20;60.70
18412;DHT22;27097;51.738;19.472;2023-06-05T05:01:28;24.20;60.20
18412;DHT22;27097;51.738;19.472;2023-06-05T05:03:55;24.20;60.60
18412;DHT22;27097;51.738;19.472;2023-06-05T05:06:25;24.20;60.00
18412;DHT22;27097;51.738;19.472;2023-06-05T05:08:52;24.30;60.80
18412;DHT22;27097;51.738;19.472;2023-06-05T05:11:19;24.30;62.10
18412;DHT22;27097;51.738;19.472;2023-06-05T05:13:49;24.30;62.90
18412;DHT22;27097;51.738;19.472;2023-06-05T05:16:16;24.30;62.60
18412;DHT22;27097;51.738;19.472;2023-06-05T05:18:44;24.30;63.80
18412;DHT22;27097;51.738;19.472;2023-06-05T05:21:11;24.30;63.00
18412;DHT22;27097;51.738;19.472;2023-06-05T05:23:39;24.30;63.20
18412;DHT22;27097;51.738;19.472;2023-06-05T05:26:09;24.30;63.60
18412;DHT22;27097;51.738;19.472;2023-06-05T05:28:36;24.40;63.20
18412;DHT22;27097;51.738;19.472;2023-06-05T05:31:03;24.40;62.80
18412;DHT22;27097;51.738;19.472;2023-06-05T05:33:30;24.40;61.80
18412;DHT22;27097;51.738;19.472;2023-06-05T05:35:58;24.40;60.40
18412;DHT22;27097;51.738;19.472;2023-06-05T05:38:24;24.40;55.80
18412;DHT22;27097;51.738;19.472;2023-06-05T05:40:53;24.40;55.40
18412;DHT22;27097;51.738;19.472;2023-06-05T05:43:20;24.30;55.70
18412;DHT22;27097;51.738;19.472;2023-06-05T05:45:47;24.30;55.00
18412;DHT22;27097;51.738;19.472;2023-06-05T05:48:14;24.40;54.40
18412;DHT22;27097;51.738;19.472;2023-06-05T05:50:42;24.40;53.30
18412;DHT22;27097;51.738;19.472;2023-06-05T05:53:09;24.40;53.00
18412;DHT22;27097;51.738;19.472;2023-06-05T05:55:36;24.40;54.10
18412;DHT22;27097;51.738;19.472;2023-06-05T05:58:05;24.40;54.40
18412;DHT22;27097;51.738;19.472;2023-06-05T06:00:32;24.40;52.80
18412;DHT22;27097;51.738;19.472;2023-06-05T06:03:00;24.40;52.80
18412;DHT22;27097;51.738;19.472;2023-06-05T06:05:30;24.40;52.40
18412;DHT22;27097;51.738;19.472;2023-06-05T06:07:56;24.40;53.40
18412;DHT22;27097;51.738;19.472;2023-06-05T06:10:23;24.50;52.50
18412;DHT22;27097;51.738;19.472;2023-06-05T06:12:52;24.50;54.00
18412;DHT22;27097;51.738;19.472;2023-06-05T06:15:20;24.50;53.10
18412;DHT22;27097;51.738;19.472;2023-06-05T06:17:47;24.50;51.50
18412;DHT22;27097;51.738;19.472;2023-06-05T06:20:14;24.50;51.50
18412;DHT22;27097;51.738;19.472;2023-06-05T06:22:41;24.50;51.40
18412;DHT22;27097;51.738;19.472;2023-06-05T06:25:10;24.60;50.30
18412;DHT22;27097;51.738;19.472;2023-06-05T06:27:37;24.60;51.60
18412;DHT22;27097;51.738;19.472;2023-06-05T06:30:05;24.60;51.20
18412;DHT22;27097;51.738;19.472;2023-06-05T06:32:34;24.60;51.90
18412;DHT22;27097;51.738;19.472;2023-06-05T06:35:01;24.60;51.90
18412;DHT22;27097;51.738;19.472;2023-06-05T06:37:28;24.60;48.70
18412;DHT22;27097;51.738;19.472;2023-06-05T06:39:54;24.70;51.10
18412;DHT22;27097;51.738;19.472;2023-06-05T06:42:21;24.70;51.20
18412;DHT22;27097;51.738;19.472;2023-06-05T06:44:51;24.70;47.70
18412;DHT22;27097;51.738;19.472;2023-06-05T06:47:21;24.70;47.20
18412;DHT22;27097;51.738;19.472;2023-06-05T06:49:49;24.80;43.80
18412;DHT22;27097;51.738;19.472;2023-06-05T06:52:16;24.80;48.50
18412;DHT22;27097;51.738;19.472;2023-06-05T06:54:44;24.70;43.00
18412;DHT22;27097;51.738;19.472;2023-06-05T06:57:11;24.80;49.30
18412;DHT22;27097;51.738;19.472;2023-06-05T06:59:38;24.80;50.00
18412;DHT22;27097;51.738;19.472;2023-06-05T07:02:10;24.80;47.10
18412;DHT22;27097;51.738;19.472;2023-06-05T07:04:37;24.90;48.20
18412;DHT22;27097;51.738;19.472;2023-06-05T07:07:08;24.90;46.00
18412;DHT22;27097;51.738;19.472;2023-06-05T07:09:35;25.00;50.00
18412;DHT22;27097;51.738;19.472;2023-06-05T07:12:02;25.00;47.10
18412;DHT22;27097;51.738;19.472;2023-06-05T07:14:31;25.00;47.70
18412;DHT22;27097;51.738;19.472;2023-06-05T07:16:58;25.00;48.30
18412;DHT22;27097;51.738;19.472;2023-06-05T07:19:26;25.00;47.20
18412;DHT22;27097;51.738;19.472;2023-06-05T07:21:54;25.00;44.40
18412;DHT22;27097;51.738;19.472;2023-06-05T07:24:22;25.00;43.50
18412;DHT22;27097;51.738;19.472;2023-06-05T07:26:51;25.10;43.50
18412;DHT22;27097;51.738;19.472;2023-06-05T07:29:18;25.10;44.30
18412;DHT22;27097;51.738;19.472;2023-06-05T07:31:46;25.10;45.40
18412;DHT22;27097;51.738;19.472;2023-06-05T07:34:14;25.20;43.90
18412;DHT22;27097;51.738;19.472;2023-06-05T07:36:41;25.20;45.00
18412;DHT22;27097;51.738;19.472;2023-06-05T07:39:08;25.20;46.80
18412;DHT22;27097;51.738;19.472;2023-06-05T07:41:38;25.20;47.00
18412;DHT22;27097;51.738;19.472;2023-06-05T07:44:05;25.20;41.00
18412;DHT22;27097;51.738;19.472;2023-06-05T07:46:32;25.20;44.40
18412;DHT22;27097;51.738;19.472;2023-06-05T07:48:59;25.20;42.40
18412;DHT22;27097;51.738;19.472;2023-06-05T07:51:26;25.20;44.30
18412;DHT22;27097;51.738;19.472;2023-06-05T07:53:53;25.20;44.70
18412;DHT22;27097;51.738;19.472;2023-06-05T07:56:20;25.20;42.80
18412;DHT22;27097;51.738;19.472;2023-06-05T07:58:50;25.20;42.90
18412;DHT22;27097;51.738;19.472;2023-06-05T08:01:17;25.20;42.60
18412;DHT22;27097;51.738;19.472;2023-06-05T08:03:46;25.20;44.10
18412;DHT22;27097;51.738;19.472;2023-06-05T08:06:13;25.20;43.70
18412;DHT22;27097;51.738;19.472;2023-06-05T08:08:41;25.20;44.50
18412;DHT22;27097;51.738;19.472;2023-06-05T08:11:09;25.20;44.40
18412;DHT22;27097;51.738;19.472;2023-06-05T08:13:36;25.20;44.60
18412;DHT22;27097;51.738;19.472;2023-06-05T08:16:05;25.20;44.60
18412;DHT22;27097;51.738;19.472;2023-06-05T08:18:32;25.20;43.80
18412;DHT22;27097;51.738;19.472;2023-06-05T08:20:59;25.20;43.40
18412;DHT22;27097;51.738;19.472;2023-06-05T08:23:26;25.30;43.40
18412;DHT22;27097;51.738;19.472;2023-06-05T08:25:54;25.30;44.10
18412;DHT22;27097;51.738;19.472;2023-06-05T08:28:21;25.30;43.90
18412;DHT22;27097;51.738;19.472;2023-06-05T08:30:48;25.30;45.20
18412;DHT22;27097;51.738;19.472;2023-06-05T08:33:19;25.30;47.50
18412;DHT22;27097;51.738;19.472;2023-06-05T08:35:45;25.30;47.70
18412;DHT22;27097;51.738;19.472;2023-06-05T08:38:12;25.30;49.10
18412;DHT22;27097;51.738;19.472;2023-06-05T08:40:39;25.20;48.40
18412;DHT22;27097;51.738;19.472;2023-06-05T08:43:07;25.20;50.10
18412;DHT22;27097;51.738;19.472;2023-06-05T08:45:34;25.30;50.00
18412;DHT22;27097;51.738;19.472;2023-06-05T08:48:02;25.30;50.60
18412;DHT22;27097;51.738;19.472;2023-06-05T08:50:31;25.30;50.90
18412;DHT22;27097;51.738;19.472;2023-06-05T08:52:59;25.30;51.40
18412;DHT22;27097;51.738;19.472;2023-06-05T08:55:26;25.30;52.60
18412;DHT22;27097;51.738;19.472;2023-06-05T08:57:54;25.30;51.90
18412;DHT22;27097;51.738;19.472;2023-06-05T09:00:22;25.30;55.80
18412;DHT22;27097;51.738;19.472;2023-06-05T09:02:49;25.20;55.60
18412;DHT22;27097;51.738;19.472;2023-06-05T09:05:16;25.10;58.00
18412;DHT22;27097;51.738;19.472;2023-06-05T09:07:45;25.00;54.20
18412;DHT22;27097;51.738;19.472;2023-06-05T09:10:22;25.00;53.70
18412;DHT22;27097;51.738;19.472;2023-06-05T09:12:53;25.00;57.20
18412;DHT22;27097;51.738;19.472;2023-06-05T09:15:21;24.90;56.50
18412;DHT22;27097;51.738;19.472;2023-06-05T09:17:48;24.90;55.60
18412;DHT22;27097;51.738;19.472;2023-06-05T09:20:28;24.90;59.10
18412;DHT22;27097;51.738;19.472;2023-06-05T09:22:58;24.80;56.50
18412;DHT22;27097;51.738;19.472;2023-06-05T09:25:25;24.80;56.30
18412;DHT22;27097;51.738;19.472;2023-06-05T09:28:05;24.80;58.30
18412;DHT22;27097;51.738;19.472;2023-06-05T09:30:32;24.80;55.00
18412;DHT22;27097;51.738;19.472;2023-06-05T09:33:08;24.80;58.80
18412;DHT22;27097;51.738;19.472;2023-06-05T09:35:35;24.80;55.60
18412;DHT22;27097;51.738;19.472;2023-06-05T09:38:25;24.90;55.00
18412;DHT22;27097;51.738;19.472;2023-06-05T09:40:52;24.90;55.50
18412;DHT22;27097;51.738;19.472;2023-06-05T09:43:21;25.00;56.10
18412;DHT22;27097;51.738;19.472;2023-06-05T09:45:49;25.00;56.10
18412;DHT22;27097;51.738;19.472;2023-06-05T09:48:16;25.00;56.70
18412;DHT22;27097;51.738;19.472;2023-06-05T09:50:42;25.10;57.20
18412;DHT22;27097;51.738;19.472;2023-06-05T09:53:14;25.10;57.00
18412;DHT22;27097;51.738;19.472;2023-06-05T09:55:42;25.10;57.40
18412;DHT22;27097;51.738;19.472;2023-06-05T09:58:12;25.20;57.10
18412;DHT22;27097;51.738;19.472;2023-06-05T10:00:40;25.20;56.70
18412;DHT22;27097;51.738;19.472;2023-06-05T10:03:10;25.20;48.90
18412;DHT22;27097;51.738;19.472;2023-06-05T10:05:40;25.20;53.80
18412;DHT22;27097;51.738;19.472;2023-06-05T10:08:09;25.20;55.10
18412;DHT22;27097;51.738;19.472;2023-06-05T10:10:38;25.30;55.90
18412;DHT22;27097;51.738;19.472;2023-06-05T10:13:06;25.30;55.70
18412;DHT22;27097;51.738;19.472;2023-06-05T10:15:33;25.30;55.10
18412;DHT22;27097;51.738;19.472;2023-06-05T10:18:04;25.30;54.70
18412;DHT22;27097;51.738;19.472;2023-06-05T10:20:32;25.30;54.20
18412;DHT22;27097;51.738;19.472;2023-06-05T10:23:01;25.30;54.30
18412;DHT22;27097;51.738;19.472;2023-06-05T10:25:29;25.30;52.20
18412;DHT22;27097;51.738;19.472;2023-06-05T10:28:11;25.30;51.20
18412;DHT22;27097;51.738;19.472;2023-06-05T10:33:51;25.30;52.20
18412;DHT22;27097;51.738;19.472;2023-06-05T10:36:32;25.30;51.60
18412;DHT22;27097;51.738;19.472;2023-06-05T10:39:06;25.30;52.20
18412;DHT22;27097;51.738;19.472;2023-06-05T10:41:34;25.30;52.70
18412;DHT22;27097;51.738;19.472;2023-06-05T10:44:02;25.30;52.10
18412;DHT22;27097;51.738;19.472;2023-06-05T10:46:31;25.30;51.40
18412;DHT22;27097;51.738;19.472;2023-06-05T10:49:08;25.30;50.90
18412;DHT22;27097;51.738;19.472;2023-06-05T10:51:37;25.30;50.00
18412;DHT22;27097;51.738;19.472;2023-06-05T10:54:05;25.40;50.80
18412;DHT22;27097;51.738;19.472;2023-06-05T10:56:59;25.40;49.90
18412;DHT22;27097;51.738;19.472;2023-06-05T10:59:29;25.40;50.50
18412;DHT22;27097;51.738;19.472;2023-06-05T11:02:22;25.40;50.60
18412;DHT22;27097;51.738;19.472;2023-06-05T11:05:19;25.40;50.70
18412;DHT22;27097;51.738;19.472;2023-06-05T11:07:47;25.40;51.40
18412;DHT22;27097;51.738;19.472;2023-06-05T11:10:15;25.40;51.50
18412;DHT22;27097;51.738;19.472;2023-06-05T11:13:00;25.40;51.90
18412;DHT22;27097;51.738;19.472;2023-06-05T11:15:39;25.40;51.80
18412;DHT22;27097;51.738;19.472;2023-06-05T11:18:34;25.40;52.40
18412;DHT22;27097;51.738;19.472;2023-06-05T11:21:01;25.40;51.60
18412;DHT22;27097;51.738;19.472;2023-06-05T11:23:29;25.40;52.50
18412;DHT22;27097;51.738;19.472;2023-06-05T11:25:57;25.40;50.50
18412;DHT22;27097;51.738;19.472;2023-06-05T11:28:40;25.40;48.40
18412;DHT22;27097;51.738;19.472;2023-06-05T11:31:09;25.40;48.80
18412;DHT22;27097;51.738;19.472;2023-06-05T11:33:36;25.40;49.60
18412;DHT22;27097;51.738;19.472;2023-06-05T11:36:05;25.30;43.70
18412;DHT22;27097;51.738;19.472;2023-06-05T11:38:34;25.30;47.00
18412;DHT22;27097;51.738;19.472;2023-06-05T11:41:06;25.30;48.70
18412;DHT22;27097;51.738;19.472;2023-06-05T11:43:41;25.30;44.70
18412;DHT22;27097;51.738;19.472;2023-06-05T11:46:10;25.30;46.80
18412;DHT22;27097;51.738;19.472;2023-06-05T11:48:43;25.30;47.80
18412;DHT22;27097;51.738;19.472;2023-06-05T11:51:10;25.30;48.40
18412;DHT22;27097;51.738;19.472;2023-06-05T11:53:44;25.30;47.00
18412;DHT22;27097;51.738;19.472;2023-06-05T11:56:14;25.30;47.20
18412;DHT22;27097;51.738;19.472;2023-06-05T11:58:43;25.30;47.80
18412;DHT22;27097;51.738;19.472;2023-06-05T12:01:13;25.30;48.80
18412;DHT22;27097;51.738;19.472;2023-06-05T12:03:43;25.30;48.10
18412;DHT22;27097;51.738;19.472;2023-06-05T12:06:11;25.30;41.10
18412;DHT22;27097;51.738;19.472;2023-06-05T12:08:40;25.30;45.90
18412;DHT22;27097;51.738;19.472;2023-06-05T12:11:20;25.30;44.80
18412;DHT22;27097;51.738;19.472;2023-06-05T12:13:49;25.30;46.40
18412;DHT22;27097;51.738;19.472;2023-06-05T12:16:18;25.30;47.00
18412;DHT22;27097;51.738;19.472;2023-06-05T12:18:46;25.30;46.60
18412;DHT22;27097;51.738;19.472;2023-06-05T12:21:21;25.30;40.80
18412;DHT22;27097;51.738;19.472;2023-06-05T12:23:49;25.30;43.10
18412;DHT22;27097;51.738;19.472;2023-06-05T12:26:16;25.30;44.50
18412;DHT22;27097;51.738;19.472;2023-06-05T12:28:43;25.20;44.90
18412;DHT22;27097;51.738;19.472;2023-06-05T12:31:34;25.20;45.60
18412;DHT22;27097;51.738;19.472;2023-06-05T12:34:02;25.20;45.70
18412;DHT22;27097;51.738;19.472;2023-06-05T12:36:29;25.20;43.70
18412;DHT22;27097;51.738;19.472;2023-06-05T12:39:02;25.20;43.80
18412;DHT22;27097;51.738;19.472;2023-06-05T12:41:31;25.20;45.50
18412;DHT22;27097;51.738;19.472;2023-06-05T12:43:59;25.10;45.30
18412;DHT22;27097;51.738;19.472;2023-06-05T12:46:26;25.10;45.40
18412;DHT22;27097;51.738;19.472;2023-06-05T12:48:54;25.10;46.30
18412;DHT22;27097;51.738;19.472;2023-06-05T12:51:23;25.10;46.00
18412;DHT22;27097;51.738;19.472;2023-06-05T12:53:50;25.10;44.20
18412;DHT22;27097;51.738;19.472;2023-06-05T12:56:17;25.10;44.50
18412;DHT22;27097;51.738;19.472;2023-06-05T12:58:43;25.10;45.20
18412;DHT22;27097;51.738;19.472;2023-06-05T13:01:10;25.10;45.40
18412;DHT22;27097;51.738;19.472;2023-06-05T13:03:38;25.10;46.30
18412;DHT22;27097;51.738;19.472;2023-06-05T13:06:06;25.00;46.10
18412;DHT22;27097;51.738;19.472;2023-06-05T13:08:33;25.00;41.50
18412;DHT22;27097;51.738;19.472;2023-06-05T13:11:00;25.00;44.30
18412;DHT22;27097;51.738;19.472;2023-06-05T13:13:26;25.00;45.00
18412;DHT22;27097;51.738;19.472;2023-06-05T13:15:54;25.00;44.50
18412;DHT22;27097;51.738;19.472;2023-06-05T13:18:21;25.00;45.20
18412;DHT22;27097;51.738;19.472;2023-06-05T13:20:48;25.00;44.10
18412;DHT22;27097;51.738;19.472;2023-06-05T13:23:16;25.00;44.70
18412;DHT22;27097;51.738;19.472;2023-06-05T13:25:43;25.00;44.80
18412;DHT22;27097;51.738;19.472;2023-06-05T13:28:10;25.00;46.20
18412;DHT22;27097;51.738;19.472;2023-06-05T13:30:37;25.00;38.80
18412;DHT22;27097;51.738;19.472;2023-06-05T13:33:04;25.00;44.30
18412;DHT22;27097;51.738;19.472;2023-06-05T13:35:31;25.00;45.40
18412;DHT22;27097;51.738;19.472;2023-06-05T13:37:58;25.00;41.00
18412;DHT22;27097;51.738;19.472;2023-06-05T13:40:26;25.00;42.20
18412;DHT22;27097;51.738;19.472;2023-06-05T13:42:53;25.00;45.10
18412;DHT22;27097;51.738;19.472;2023-06-05T13:45:20;25.00;45.40
18412;DHT22;27097;51.738;19.472;2023-06-05T13:47:47;25.00;45.30
18412;DHT22;27097;51.738;19.472;2023-06-05T13:50:14;25.00;46.10
18412;DHT22;27097;51.738;19.472;2023-06-05T13:52:41;25.00;45.80
18412;DHT22;27097;51.738;19.472;2023-06-05T13:55:10;25.00;46.30
18412;DHT22;27097;51.738;19.472;2023-06-05T13:57:39;25.00;46.80
18412;DHT22;27097;51.738;19.472;2023-06-05T14:00:09;25.00;46.10
18412;DHT22;27097;51.738;19.472;2023-06-05T14:02:37;25.00;46.70
18412;DHT22;27097;51.738;19.472;2023-06-05T14:05:09;25.00;46.40
18412;DHT22;27097;51.738;19.472;2023-06-05T14:07:37;24.90;46.20
18412;DHT22;27097;51.738;19.472;2023-06-05T14:10:10;24.90;46.70
18412;DHT22;27097;51.738;19.472;2023-06-05T14:12:38;24.90;45.80
18412;DHT22;27097;51.738;19.472;2023-06-05T14:15:06;24.90;45.60
18412;DHT22;27097;51.738;19.472;2023-06-05T14:17:36;24.90;43.60
18412;DHT22;27097;51.738;19.472;2023-06-05T14:20:04;24.90;39.90
18412;DHT22;27097;51.738;19.472;2023-06-05T14:22:31;25.00;41.90
18412;DHT22;27097;51.738;19.472;2023-06-05T14:24:58;25.00;44.00
18412;DHT22;27097;51.738;19.472;2023-06-05T14:27:25;25.00;46.30
18412;DHT22;27097;51.738;19.472;2023-06-05T14:29:54;24.90;41.70
18412;DHT22;27097;51.738;19.472;2023-06-05T14:32:21;25.00;47.30
18412;DHT22;27097;51.738;19.472;2023-06-05T14:34:48;24.90;39.30
18412;DHT22;27097;51.738;19.472;2023-06-05T14:37:15;24.90;40.10
18412;DHT22;27097;51.738;19.472;2023-06-05T14:39:42;24.90;39.90
18412;DHT22;27097;51.738;19.472;2023-06-05T14:42:09;24.90;42.90
18412;DHT22;27097;51.738;19.472;2023-06-05T14:44:36;24.90;39.40
18412;DHT22;27097;51.738;19.472;2023-06-05T14:47:05;24.90;43.80
18412;DHT22;27097;51.738;19.472;2023-06-05T14:49:32;24.90;42.30
18412;DHT22;27097;51.738;19.472;2023-06-05T14:51:58;24.90;46.40
18412;DHT22;27097;51.738;19.472;2023-06-05T14:54:25;24.90;47.30
18412;DHT22;27097;51.738;19.472;2023-06-05T14:56:52;24.90;42.70
18412;DHT22;27097;51.738;19.472;2023-06-05T14:59:19;24.80;46.30
18412;DHT22;27097;51.738;19.472;2023-06-05T15:01:46;24.80;44.90
18412;DHT22;27097;51.738;19.472;2023-06-05T15:04:14;24.90;46.90
18412;DHT22;27097;51.738;19.472;2023-06-05T15:06:41;24.80;44.50
18412;DHT22;27097;51.738;19.472;2023-06-05T15:09:08;24.80;46.50
18412;DHT22;27097;51.738;19.472;2023-06-05T15:11:35;24.80;45.40
18412;DHT22;27097;51.738;19.472;2023-06-05T15:14:02;24.90;41.70
18412;DHT22;27097;51.738;19.472;2023-06-05T15:16:29;24.90;45.00
18412;DHT22;27097;51.738;19.472;2023-06-05T15:18:56;24.90;43.40
18412;DHT22;27097;51.738;19.472;2023-06-05T15:21:24;24.90;44.10
18412;DHT22;27097;51.738;19.472;2023-06-05T15:23:51;24.90;44.30
18412;DHT22;27097;51.738;19.472;2023-06-05T15:26:18;24.80;44.10